Time;durP1;ratioP1;P1;durP2;ratioP2;P2;SDS_P1;SDS_P2;PMS_P1;PMS_P2;Temp;Humidity;BMP_temperature;BMP_pressure;BME280_temperature;BME280_humidity;BME280_pressure;Samples;Min_cycle;Max_cycle;Signal;HPM_P1;HPM_P2
2023/12/20 00:01:23;;;;;;;43.50;24.00;;;;;;;2.40;70.71;98594.67;105322;1256;97814;-74
2023/12/20 00:03:51;;;;;;;47.10;26.70;;;;;;;2.42;70.25;98592.67;105409;1255;110004;-71
2023/12/20 00:06:19;;;;;;;47.50;26.60;;;;;;;2.42;70.27;98588.27;105545;1253;96530;-74
2023/12/20 00:08:47;;;;;;;49.10;26.10;;;;;;;2.44;70.32;98585.91;105278;1254;106826;-74
2023/12/20 00:11:15;;;;;;;44.60;24.10;;;;;;;2.44;70.35;98586.61;105658;1254;97435;-74
2023/12/20 00:13:43;;;;;;;44.80;24.50;;;;;;;2.46;70.25;98584.75;105474;1254;96533;-73
2023/12/20 00:16:14;;;;;;;44.30;24.90;;;;;;;2.47;70.36;98576.11;105367;1259;109872;-74
2023/12/20 00:18:42;;;;;;;43.20;24.70;;;;;;;2.50;70.48;98577.38;105381;1257;96541;-73
2023/12/20 00:21:10;;;;;;;46.60;26.50;;;;;;;2.52;70.27;98573.22;105421;1254;106681;-73
2023/12/20 00:23:38;;;;;;;44.20;24.80;;;;;;;2.54;70.30;98570.54;105246;1259;97567;-73
2023/12/20 00:26:05;;;;;;;47.10;24.90;;;;;;;2.55;70.34;98573.11;105319;1257;97533;-72
2023/12/20 00:28:34;;;;;;;45.80;24.70;;;;;;;2.57;70.35;98567.80;105557;1256;109452;-74
2023/12/20 00:31:02;;;;;;;43.60;24.20;;;;;;;2.57;70.11;98566.00;105402;1257;96733;-74
2023/12/20 00:33:30;;;;;;;47.30;25.60;;;;;;;2.60;70.45;98559.42;105476;1257;107710;-74
2023/12/20 00:35:58;;;;;;;48.00;25.80;;;;;;;2.61;70.43;98556.72;105275;1256;96619;-72
2023/12/20 00:38:28;;;;;;;45.00;23.90;;;;;;;2.62;70.21;98555.45;105449;1256;96789;-73
2023/12/20 00:40:56;;;;;;;44.10;25.20;;;;;;;2.63;70.55;98555.91;105372;1254;109534;-74
2023/12/20 00:43:24;;;;;;;43.80;23.30;;;;;;;2.67;70.34;98548.73;105426;1260;96527;-74
2023/12/20 00:45:52;;;;;;;42.50;24.70;;;;;;;2.67;70.52;98556.79;105202;1258;107119;-73
2023/12/20 00:48:20;;;;;;;42.70;22.80;;;;;;;2.67;70.51;98552.40;105394;1256;97894;-74
2023/12/20 00:50:48;;;;;;;42.30;24.30;;;;;;;2.69;70.20;98548.10;105155;1260;97836;-73
2023/12/20 00:53:16;;;;;;;43.30;23.10;;;;;;;2.71;70.21;98547.51;105181;1261;110256;-72
2023/12/20 00:55:45;;;;;;;44.00;23.50;;;;;;;2.73;70.28;98543.74;105528;1256;96620;-74
2023/12/20 00:58:15;;;;;;;43.00;23.80;;;;;;;2.74;70.35;98540.71;105334;1260;107580;-74
2023/12/20 01:00:43;;;;;;;44.30;23.70;;;;;;;2.74;70.35;98537.53;105513;1256;96686;-74
2023/12/20 01:03:12;;;;;;;43.00;24.30;;;;;;;2.75;69.97;98535.40;105888;1256;97587;-72
2023/12/20 01:05:40;;;;;;;41.10;22.70;;;;;;;2.74;70.33;98530.53;105141;1259;110445;-72
2023/12/20 01:08:08;;;;;;;45.30;24.20;;;;;;;2.76;70.30;98533.79;105249;1257;96671;-74
2023/12/20 01:10:36;;;;;;;40.60;23.50;;;;;;;2.75;70.32;98522.25;105563;1254;108422;-74
2023/12/20 01:13:04;;;;;;;44.50;23.10;;;;;;;2.74;70.36;98523.35;105413;1256;96625;-74
2023/12/20 01:15:32;;;;;;;45.80;24.30;;;;;;;2.73;70.05;98516.24;105331;1257;98178;-74
2023/12/20 01:18:00;;;;;;;42.40;24.10;;;;;;;2.71;70.44;98511.44;105230;1266;109890;-75
2023/12/20 01:20:28;;;;;;;41.60;24.10;;;;;;;2.68;70.24;98505.26;105262;1267;96597;-74
2023/12/20 01:22:56;;;;;;;42.00;21.90;;;;;;;2.64;70.05;98507.05;105399;1256;107563;-73
2023/12/20 01:25:24;;;;;;;42.90;23.50;;;;;;;2.58;70.07;98502.95;105562;1256;96683;-72
2023/12/20 01:27:52;;;;;;;40.00;21.60;;;;;;;2.55;70.33;98499.07;105278;1256;96616;-74
2023/12/20 01:30:20;;;;;;;40.90;22.60;;;;;;;2.55;70.05;98495.77;105507;1253;108682;-73
2023/12/20 01:32:48;;;;;;;43.40;23.70;;;;;;;2.51;70.30;98492.41;105443;1254;97939;-74
2023/12/20 01:35:16;;;;;;;42.00;20.80;;;;;;;2.50;70.15;98486.72;105467;1259;107311;-73
2023/12/20 01:37:44;;;;;;;40.40;21.00;;;;;;;2.50;70.08;98490.55;105603;1256;96607;-72
2023/12/20 01:40:13;;;;;;;40.00;21.30;;;;;;;2.49;70.17;98489.23;105260;1256;97127;-74
2023/12/20 01:42:41;;;;;;;38.80;21.80;;;;;;;2.48;70.16;98487.67;105375;1256;110037;-72
2023/12/20 01:45:10;;;;;;;38.90;21.90;;;;;;;2.46;70.36;98490.24;105446;1254;96532;-72
2023/12/20 01:47:38;;;;;;;40.20;21.50;;;;;;;2.45;70.12;98487.31;105471;1257;107721;-73
2023/12/20 01:50:08;;;;;;;41.40;21.90;;;;;;;2.45;70.16;98484.50;105783;1253;97040;-74
2023/12/20 01:52:37;;;;;;;39.70;21.90;;;;;;;2.43;70.17;98491.26;105962;1256;96679;-72
2023/12/20 01:55:12;;;;;;;40.50;21.60;;;;;;;2.42;70.15;98498.67;105785;1256;110589;-75
2023/12/20 01:57:42;;;;;;;41.80;20.90;;;;;;;2.42;69.88;98495.52;105611;1257;96632;-73
2023/12/20 02:00:12;;;;;;;39.90;21.90;;;;;;;2.41;70.08;98482.09;105431;1256;109291;-75
2023/12/20 02:02:40;;;;;;;39.70;20.80;;;;;;;2.39;70.06;98477.09;105618;1254;97922;-72
2023/12/20 02:05:09;;;;;;;40.10;21.10;;;;;;;2.38;69.69;98470.51;105717;1253;96606;-74
2023/12/20 02:07:37;;;;;;;42.30;21.50;;;;;;;2.36;70.08;98462.17;105268;1257;109680;-74
2023/12/20 02:10:06;;;;;;;39.60;20.70;;;;;;;2.35;69.82;98458.58;105531;1252;96625;-73
2023/12/20 02:12:34;;;;;;;37.80;20.60;;;;;;;2.34;69.93;98456.48;105591;1256;108151;-73
2023/12/20 02:15:02;;;;;;;38.60;20.10;;;;;;;2.33;70.06;98459.33;105465;1256;96713;-74
2023/12/20 02:17:32;;;;;;;38.90;20.00;;;;;;;2.33;69.69;98457.27;105402;1256;96923;-71
2023/12/20 02:19:59;;;;;;;38.00;19.70;;;;;;;2.29;69.83;98451.31;105386;1253;109807;-72
2023/12/20 02:22:28;;;;;;;38.50;19.50;;;;;;;2.29;70.05;98453.25;105330;1256;96700;-72
2023/12/20 02:24:57;;;;;;;36.30;19.60;;;;;;;2.29;69.93;98443.61;105248;1256;107578;-74
2023/12/20 02:27:25;;;;;;;38.20;19.90;;;;;;;2.28;70.11;98438.27;105506;1256;96743;-74
2023/12/20 02:29:53;;;;;;;39.70;19.60;;;;;;;2.26;69.80;98438.86;105638;1256;96641;-72
2023/12/20 02:32:22;;;;;;;35.80;18.90;;;;;;;2.26;70.21;98442.23;105758;1253;110056;-73
2023/12/20 02:34:51;;;;;;;37.40;19.40;;;;;;;2.24;70.07;98440.88;105393;1254;96708;-74
2023/12/20 02:37:19;;;;;;;36.80;20.40;;;;;;;2.23;69.92;98432.91;105274;1259;107695;-72
2023/12/20 02:39:47;;;;;;;39.70;18.40;;;;;;;2.21;70.30;98430.18;105159;1256;96676;-73
2023/12/20 02:42:15;;;;;;;36.80;18.60;;;;;;;2.20;69.88;98432.69;105626;1257;96682;-74
2023/12/20 02:44:43;;;;;;;36.80;18.60;;;;;;;2.21;69.99;98438.40;105579;1256;110029;-73
2023/12/20 02:47:11;;;;;;;37.50;19.00;;;;;;;2.22;69.98;98437.00;105328;1256;96591;-74
2023/12/20 02:49:39;;;;;;;35.20;19.10;;;;;;;2.22;69.99;98435.92;105610;1254;107718;-74
2023/12/20 02:52:07;;;;;;;36.70;18.60;;;;;;;2.25;69.84;98430.55;105298;1259;97627;-74
2023/12/20 02:54:35;;;;;;;34.70;17.90;;;;;;;2.26;69.98;98431.90;105357;1257;97911;-73
2023/12/20 02:57:03;;;;;;;35.10;18.00;;;;;;;2.26;69.80;98424.20;105539;1256;109572;-74
2023/12/20 02:59:31;;;;;;;35.70;18.40;;;;;;;2.26;69.91;98420.17;105513;1253;96664;-73
2023/12/20 03:01:59;;;;;;;40.40;19.80;;;;;;;2.25;69.94;98418.27;105708;1252;107553;-71
2023/12/20 03:04:27;;;;;;;35.50;17.90;;;;;;;2.22;70.08;98409.84;105468;1254;96683;-74
2023/12/20 03:06:55;;;;;;;37.10;19.10;;;;;;;2.19;69.96;98403.15;105705;1253;96634;-74
2023/12/20 03:09:23;;;;;;;36.10;19.30;;;;;;;2.18;69.81;98401.13;105678;1256;110383;-75
2023/12/20 03:11:51;;;;;;;34.40;17.00;;;;;;;2.16;69.71;98398.74;105704;1253;96600;-74
2023/12/20 03:14:19;;;;;;;36.90;19.90;;;;;;;2.16;69.77;98398.60;105503;1256;107178;-73
2023/12/20 03:16:51;;;;;;;38.40;20.10;;;;;;;2.16;69.88;98399.48;105373;1259;96620;-73
2023/12/20 03:19:19;;;;;;;37.60;20.10;;;;;;;2.12;70.07;98399.67;105579;1253;96695;-73
2023/12/20 03:21:47;;;;;;;37.30;20.10;;;;;;;2.11;70.14;98397.64;105440;1254;109662;-74
2023/12/20 03:24:15;;;;;;;36.50;19.20;;;;;;;2.11;69.96;98400.27;105515;1263;96611;-73
2023/12/20 03:26:43;;;;;;;38.10;20.10;;;;;;;2.10;70.07;98399.23;105480;1254;107599;-72
2023/12/20 03:29:11;;;;;;;38.00;19.10;;;;;;;2.07;69.85;98396.38;105192;1257;97932;-73
2023/12/20 03:31:40;;;;;;;45.90;21.70;;;;;;;2.04;69.81;98397.77;105315;1256;98034;-73
2023/12/20 03:34:08;;;;;;;40.30;20.80;;;;;;;2.01;69.85;98399.33;105471;1253;109660;-73
2023/12/20 03:36:36;;;;;;;39.00;20.20;;;;;;;1.98;69.91;98397.56;105281;1256;96845;-74
2023/12/20 03:39:05;;;;;;;37.60;18.80;;;;;;;1.96;70.27;98400.29;105398;1254;106821;-72
2023/12/20 03:41:33;;;;;;;39.00;21.40;;;;;;;1.94;70.22;98402.28;105499;1256;96667;-73
2023/12/20 03:44:01;;;;;;;38.80;21.60;;;;;;;1.91;70.21;98400.65;105434;1256;97633;-72
2023/12/20 03:46:28;;;;;;;40.00;20.30;;;;;;;1.88;69.89;98396.79;105420;1258;109350;-74
2023/12/20 03:48:56;;;;;;;36.70;18.20;;;;;;;1.86;70.17;98402.46;105189;1256;96549;-74
2023/12/20 03:51:28;;;;;;;34.30;18.30;;;;;;;1.85;70.31;98400.94;105402;1256;107003;-73
2023/12/20 03:53:55;;;;;;;40.20;21.80;;;;;;;1.86;70.48;98400.23;105620;1256;96625;-73
2023/12/20 03:56:23;;;;;;;36.40;18.50;;;;;;;1.85;70.32;98395.38;105624;1256;96597;-73
2023/12/20 03:58:51;;;;;;;41.90;22.40;;;;;;;1.81;70.37;98391.71;105447;1254;109125;-72
2023/12/20 04:01:19;;;;;;;40.70;21.40;;;;;;;1.77;70.05;98393.65;105479;1258;96606;-74
2023/12/20 04:03:47;;;;;;;38.30;20.70;;;;;;;1.74;70.35;98399.04;105603;1257;108155;-74
2023/12/20 04:06:18;;;;;;;41.90;22.20;;;;;;;1.71;70.55;98401.26;105532;1259;98041;-73
2023/12/20 04:08:47;;;;;;;42.00;21.80;;;;;;;1.68;70.52;98398.80;105334;1253;96731;-73
2023/12/20 04:11:15;;;;;;;39.50;20.60;;;;;;;1.66;70.29;98400.30;105369;1256;108894;-74
2023/12/20 04:13:42;;;;;;;40.40;21.80;;;;;;;1.63;70.74;98394.83;105267;1261;98107;-74
2023/12/20 04:16:10;;;;;;;39.40;20.60;;;;;;;1.59;70.59;98404.42;105394;1256;106741;-75
2023/12/20 04:18:38;;;;;;;38.10;20.60;;;;;;;1.58;70.43;98411.49;105764;1274;96625;-74
2023/12/20 04:21:07;;;;;;;37.50;20.30;;;;;;;1.58;70.43;98412.20;105376;1253;96628;-75
2023/12/20 04:23:35;;;;;;;38.80;21.20;;;;;;;1.56;70.31;98412.63;105328;1254;109088;-74
2023/12/20 04:26:03;;;;;;;40.00;20.40;;;;;;;1.53;70.54;98409.77;105664;1253;96607;-73
2023/12/20 04:28:31;;;;;;;36.50;19.90;;;;;;;1.50;70.54;98409.93;105422;1269;107306;-73
2023/12/20 04:30:59;;;;;;;40.60;20.70;;;;;;;1.49;70.36;98406.44;105588;1257;96712;-73
2023/12/20 04:33:27;;;;;;;40.10;20.50;;;;;;;1.50;70.61;98405.91;105482;1253;96599;-74
2023/12/20 04:35:55;;;;;;;37.60;19.90;;;;;;;1.48;70.64;98405.09;105202;1256;109781;-73
2023/12/20 04:38:23;;;;;;;38.60;20.10;;;;;;;1.50;70.33;98407.65;105478;1253;96632;-74
2023/12/20 04:40:51;;;;;;;36.80;20.10;;;;;;;1.50;70.48;98408.71;105215;1254;107694;-73
2023/12/20 04:43:19;;;;;;;36.90;19.80;;;;;;;1.50;70.35;98407.13;105463;1254;96655;-73
2023/12/20 04:45:47;;;;;;;36.90;18.90;;;;;;;1.52;70.50;98403.00;105341;1259;96580;-74
2023/12/20 04:48:15;;;;;;;34.60;17.10;;;;;;;1.54;70.32;98398.23;105218;1254;109581;-73
2023/12/20 04:50:43;;;;;;;34.20;17.90;;;;;;;1.53;70.38;98388.14;105549;1256;96600;-74
2023/12/20 04:53:14;;;;;;;35.60;17.80;;;;;;;1.52;70.18;98386.42;105313;1256;107260;-73
2023/12/20 04:56:33;;;;;;;37.40;17.90;;;;;;;1.51;70.68;98380.70;107606;1253;97886;-74
2023/12/20 04:59:01;;;;;;;34.60;18.70;;;;;;;1.49;70.08;98379.55;105456;1256;96613;-73
2023/12/20 05:01:29;;;;;;;37.00;18.40;;;;;;;1.49;70.22;98384.79;105572;1256;110401;-72
2023/12/20 05:03:57;;;;;;;35.30;17.40;;;;;;;1.50;70.28;98386.50;105685;1256;96533;-72
2023/12/20 05:06:25;;;;;;;35.50;18.30;;;;;;;1.51;70.41;98389.80;105664;1256;107647;-72
2023/12/20 05:08:52;;;;;;;36.00;18.30;;;;;;;1.52;70.25;98390.29;105598;1256;96631;-73
2023/12/20 05:11:20;;;;;;;35.80;18.10;;;;;;;1.53;70.32;98397.38;105432;1257;96571;-72
2023/12/20 05:13:48;;;;;;;36.50;17.40;;;;;;;1.55;70.41;98399.77;105611;1254;109833;-73
2023/12/20 05:16:20;;;;;;;36.10;19.30;;;;;;;1.55;70.54;98396.23;105558;1256;96520;-73
2023/12/20 05:18:50;;;;;;;32.70;16.50;;;;;;;1.56;70.29;98397.06;105472;1254;107075;-74
2023/12/20 05:21:18;;;;;;;32.00;15.90;;;;;;;1.57;70.15;98396.49;105547;1256;97941;-73
2023/12/20 05:23:46;;;;;;;37.50;18.20;;;;;;;1.59;70.32;98397.11;105236;1259;97550;-74
2023/12/20 05:26:14;;;;;;;33.00;16.70;;;;;;;1.58;70.30;98395.77;105392;1256;109935;-74
2023/12/20 05:28:42;;;;;;;34.20;16.70;;;;;;;1.59;70.18;98388.56;105528;1254;96527;-73
2023/12/20 05:31:10;;;;;;;34.40;18.10;;;;;;;1.62;70.38;98386.27;105532;1254;107587;-74
2023/12/20 05:33:38;;;;;;;34.20;16.50;;;;;;;1.66;70.24;98381.23;105471;1257;96637;-82
2023/12/20 05:36:11;;;;;;;32.30;15.80;;;;;;;1.71;70.28;98375.41;105475;1259;96616;-74
2023/12/20 05:38:39;;;;;;;31.10;15.50;;;;;;;1.75;70.40;98375.91;105978;1253;109884;-75
2023/12/20 05:41:08;;;;;;;33.30;15.80;;;;;;;1.77;70.52;98375.61;106868;1253;96686;-74
2023/12/20 05:43:35;;;;;;;34.30;17.20;;;;;;;1.83;70.60;98378.19;106117;1253;107735;-74
2023/12/20 05:46:03;;;;;;;33.70;16.70;;;;;;;1.86;70.42;98376.42;105586;1256;96683;-75
2023/12/20 05:48:31;;;;;;;33.30;17.30;;;;;;;1.91;70.09;98370.42;105750;1257;96625;-74
2023/12/20 05:50:59;;;;;;;29.90;15.10;;;;;;;1.95;70.44;98373.23;105755;1253;110598;-74
2023/12/20 05:53:27;;;;;;;31.50;15.90;;;;;;;1.97;70.63;98371.38;105439;1254;96548;-73
2023/12/20 05:55:55;;;;;;;31.10;15.70;;;;;;;1.99;70.30;98370.77;105588;1258;107655;-73
2023/12/20 05:58:22;;;;;;;31.50;17.10;;;;;;;1.99;70.46;98369.52;105757;1256;98049;-74
2023/12/20 06:00:50;;;;;;;29.80;16.30;;;;;;;2.02;70.26;98373.56;105576;1256;96918;-75
2023/12/20 06:03:19;;;;;;;30.10;15.10;;;;;;;2.06;70.44;98370.21;105734;1256;112475;-74
2023/12/20 06:05:46;;;;;;;32.70;15.70;;;;;;;2.10;70.43;98380.90;105533;1254;97929;-74
2023/12/20 06:08:14;;;;;;;37.00;17.20;;;;;;;2.12;70.40;98383.10;105605;1256;107474;-74
2023/12/20 06:10:42;;;;;;;35.80;17.30;;;;;;;2.11;70.56;98383.80;105305;1259;96663;-74
2023/12/20 06:13:11;;;;;;;34.80;17.30;;;;;;;2.11;70.39;98388.73;105707;1254;97851;-73
2023/12/20 06:15:40;;;;;;;31.90;16.50;;;;;;;2.14;70.51;98386.66;105594;1254;109977;-72
2023/12/20 06:18:08;;;;;;;34.80;16.90;;;;;;;2.16;70.34;98386.71;105952;1253;96594;-73
2023/12/20 06:20:37;;;;;;;32.40;14.50;;;;;;;2.20;70.51;98382.67;105455;1256;107281;-74
2023/12/20 06:23:04;;;;;;;30.10;15.20;;;;;;;2.26;70.44;98387.27;108343;1252;96521;-71
2023/12/20 06:25:35;;;;;;;29.00;14.20;;;;;;;2.32;70.43;98388.20;105509;1259;96747;-74
2023/12/20 06:28:03;;;;;;;29.70;14.60;;;;;;;2.38;70.43;98391.23;105415;1256;109593;-75
2023/12/20 06:30:32;;;;;;;27.60;13.40;;;;;;;2.43;70.69;98386.29;105799;1254;96613;-74
2023/12/20 06:33:00;;;;;;;28.70;14.60;;;;;;;2.46;70.13;98386.98;106365;1256;107623;-75
2023/12/20 06:35:31;;;;;;;28.90;13.70;;;;;;;2.48;70.28;98393.35;106958;1254;96600;-75
2023/12/20 06:38:03;;;;;;;29.80;15.20;;;;;;;2.51;70.27;98393.02;108270;1256;94317;-74
2023/12/20 06:40:31;;;;;;;30.30;15.10;;;;;;;2.53;70.42;98392.02;105568;1254;110260;-74
2023/12/20 06:42:59;;;;;;;32.60;15.80;;;;;;;2.57;70.39;98390.81;105531;1256;97436;-75
2023/12/20 06:45:39;;;;;;;28.40;14.40;;;;;;;2.60;70.64;98394.33;105356;1257;107652;-75
2023/12/20 06:48:07;;;;;;;33.70;15.90;;;;;;;2.63;70.38;98391.92;105759;1257;96593;-74
2023/12/20 06:50:39;;;;;;;30.00;15.10;;;;;;;2.63;70.40;98386.11;105513;1256;96601;-75
2023/12/20 06:53:07;;;;;;;35.40;17.20;;;;;;;2.67;70.78;98391.72;105596;1256;109909;-74
2023/12/20 06:55:37;;;;;;;38.10;19.50;;;;;;;2.67;70.48;98391.32;105085;1258;97183;-74
2023/12/20 06:58:06;;;;;;;36.70;17.80;;;;;;;2.68;70.44;98396.89;105209;1257;107647;-74
2023/12/20 07:00:34;;;;;;;35.70;18.90;;;;;;;2.68;70.49;98400.75;105487;1256;97588;-75
2023/12/20 07:03:03;;;;;;;34.70;18.20;;;;;;;2.68;70.48;98402.50;105481;1256;96622;-75
2023/12/20 07:05:31;;;;;;;33.50;17.60;;;;;;;2.68;70.25;98399.14;105091;1254;109975;-75
2023/12/20 07:07:59;;;;;;;32.40;18.00;;;;;;;2.69;70.51;98400.34;105442;1256;97941;-74
2023/12/20 07:10:27;;;;;;;31.50;15.90;;;;;;;2.69;70.23;98398.77;105583;1256;107904;-75
2023/12/20 07:12:55;;;;;;;31.20;15.50;;;;;;;2.71;70.18;98400.45;105217;1259;96619;-75
2023/12/20 07:15:23;;;;;;;29.80;15.80;;;;;;;2.73;70.64;98402.09;105238;1257;97827;-74
2023/12/20 07:17:53;;;;;;;32.10;16.90;;;;;;;2.74;70.33;98407.80;105463;1254;110739;-74
2023/12/20 07:20:20;;;;;;;32.20;16.20;;;;;;;2.74;69.90;98404.81;105447;1255;96724;-75
2023/12/20 07:22:48;;;;;;;33.10;16.10;;;;;;;2.75;70.47;98405.31;105508;1256;107696;-74
2023/12/20 07:25:16;;;;;;;32.20;16.50;;;;;;;2.77;70.59;98408.55;105306;1257;97907;-75
2023/12/20 07:27:44;;;;;;;30.70;15.90;;;;;;;2.77;70.13;98410.80;105214;1257;96594;-74
2023/12/20 07:30:12;;;;;;;29.50;14.90;;;;;;;2.77;70.49;98411.48;105360;1256;109972;-73
2023/12/20 07:32:40;;;;;;;31.00;15.40;;;;;;;2.79;70.63;98412.42;105300;1256;97845;-74
2023/12/20 07:35:08;;;;;;;31.10;15.80;;;;;;;2.83;70.54;98411.39;105234;1253;107634;-74
2023/12/20 07:37:36;;;;;;;29.40;14.60;;;;;;;2.85;70.34;98414.59;105641;1257;96616;-75
2023/12/20 07:40:05;;;;;;;29.40;14.90;;;;;;;2.85;70.35;98414.77;105263;1256;96703;-76
2023/12/20 07:42:33;;;;;;;30.10;15.20;;;;;;;2.83;70.41;98404.89;105323;1256;109805;-74
2023/12/20 07:45:01;;;;;;;31.00;15.20;;;;;;;2.84;70.35;98409.59;105522;1256;96635;-75
2023/12/20 07:47:31;;;;;;;33.00;18.50;;;;;;;2.83;70.34;98408.59;105419;1256;107277;-75
2023/12/20 07:49:59;;;;;;;33.50;16.80;;;;;;;2.82;69.87;98405.48;105628;1257;96604;-73
2023/12/20 07:52:27;;;;;;;34.60;18.00;;;;;;;2.80;69.69;98404.33;105599;1257;96612;-75
2023/12/20 07:54:55;;;;;;;34.80;19.40;;;;;;;2.77;69.79;98396.09;105482;1254;109817;-75
2023/12/20 07:57:25;;;;;;;32.30;17.00;;;;;;;2.75;70.09;98394.23;105445;1256;96594;-75
2023/12/20 07:59:53;;;;;;;32.70;16.10;;;;;;;2.73;69.85;98393.49;105173;1257;105787;-75
2023/12/20 08:06:20;;;;;;;31.70;16.70;;;;;;;2.71;70.01;98393.95;86372;1276;95799;31
2023/12/20 08:08:48;;;;;;;33.00;15.40;;;;;;;2.68;70.00;98388.69;104168;1276;110153;-75
2023/12/20 08:11:29;;;;;;;31.80;16.20;;;;;;;2.67;70.01;98385.94;104063;1287;96541;-76
2023/12/20 08:13:57;;;;;;;32.80;18.00;;;;;;;2.65;70.11;98386.70;103871;1285;107488;-75
2023/12/20 08:16:25;;;;;;;36.10;18.90;;;;;;;2.64;70.08;98382.92;104076;1277;97998;-76
2023/12/20 08:18:52;;;;;;;40.40;20.50;;;;;;;2.60;69.84;98379.61;104003;1285;96630;-75
2023/12/20 08:21:22;;;;;;;36.30;20.40;;;;;;;2.57;70.09;98372.77;103526;1282;108407;-75
2023/12/20 08:23:50;;;;;;;35.70;20.10;;;;;;;2.58;70.14;98371.33;104043;1277;96600;-76
2023/12/20 08:26:22;;;;;;;32.30;18.50;;;;;;;2.63;70.13;98369.67;104318;1276;107848;-75
2023/12/20 08:28:50;;;;;;;33.00;17.30;;;;;;;2.66;70.14;98365.80;104211;1272;96681;-75
2023/12/20 08:31:19;;;;;;;32.00;16.20;;;;;;;2.70;70.36;98367.90;104266;1276;96631;-76
2023/12/20 08:33:48;;;;;;;31.00;16.10;;;;;;;2.76;70.22;98377.25;104049;1276;109691;-74
2023/12/20 08:36:17;;;;;;;31.20;17.00;;;;;;;2.80;70.38;98378.45;104233;1277;96680;-75
2023/12/20 08:38:47;;;;;;;36.70;18.90;;;;;;;2.85;70.19;98373.45;104156;1274;105629;-75
2023/12/20 08:41:17;;;;;;;35.80;20.00;;;;;;;2.90;70.47;98376.15;104174;1281;96680;-73
2023/12/20 08:43:44;;;;;;;37.00;19.60;;;;;;;2.94;70.27;98376.13;104131;1276;96637;-75
2023/12/20 08:46:14;;;;;;;35.60;18.50;;;;;;;2.98;70.47;98380.64;104331;1276;109583;-75
2023/12/20 08:48:42;;;;;;;35.60;17.20;;;;;;;3.01;70.49;98376.32;104302;1276;96723;-74
2023/12/20 08:51:11;;;;;;;36.30;17.60;;;;;;;3.06;70.40;98381.96;104307;1277;107213;-75
2023/12/20 08:53:38;;;;;;;33.50;17.50;;;;;;;3.08;70.35;98382.20;104300;1285;96650;-74
2023/12/20 08:56:07;;;;;;;37.20;18.80;;;;;;;3.09;70.27;98386.36;104269;1276;96574;-74
2023/12/20 08:58:35;;;;;;;35.10;18.60;;;;;;;3.10;70.25;98379.30;104135;1276;110021;-75
2023/12/20 09:01:04;;;;;;;38.00;19.40;;;;;;;3.11;70.19;98378.55;104249;1285;96640;-74
2023/12/20 09:03:32;;;;;;;37.80;19.30;;;;;;;3.10;70.40;98378.59;104336;1272;106816;-76
2023/12/20 09:06:01;;;;;;;33.60;16.90;;;;;;;3.12;70.24;98377.46;104482;1276;96555;-75
2023/12/20 09:08:29;;;;;;;36.70;19.90;;;;;;;3.14;70.05;98370.55;104236;1277;96648;-76
2023/12/20 09:10:56;;;;;;;35.40;17.90;;;;;;;3.13;70.30;98369.31;104237;1285;109683;-74
2023/12/20 09:13:28;;;;;;;37.70;18.80;;;;;;;3.16;70.58;98368.50;104215;1273;96658;-75
2023/12/20 09:15:57;;;;;;;36.50;18.10;;;;;;;3.19;70.22;98363.09;104062;1285;108215;-75
2023/12/20 09:18:25;;;;;;;34.30;17.30;;;;;;;3.21;70.17;98362.81;103960;1279;96654;-76
2023/12/20 09:20:54;;;;;;;37.40;17.90;;;;;;;3.24;70.67;98360.55;103707;1274;97574;-76
2023/12/20 09:23:23;;;;;;;34.60;19.00;;;;;;;3.27;70.32;98361.23;104132;1281;109956;-75
2023/12/20 09:25:51;;;;;;;35.60;17.90;;;;;;;3.30;70.30;98357.94;103962;1277;96607;-75
2023/12/20 09:28:23;;;;;;;35.10;18.90;;;;;;;3.30;70.26;98355.31;104064;1276;106381;-74
2023/12/20 09:30:51;;;;;;;35.20;17.60;;;;;;;3.32;70.20;98354.13;104186;1276;97555;-74
2023/12/20 09:33:19;;;;;;;39.90;19.90;;;;;;;3.35;70.33;98346.80;104389;1276;96566;-76
2023/12/20 09:35:47;;;;;;;37.90;19.50;;;;;;;3.35;70.23;98347.16;104413;1276;109448;-76
2023/12/20 09:38:17;;;;;;;37.10;17.30;;;;;;;3.37;70.32;98346.88;104480;1276;96561;-73
2023/12/20 09:40:45;;;;;;;34.70;18.20;;;;;;;3.40;70.49;98346.20;104419;1285;108025;-75
2023/12/20 09:43:20;;;;;;;32.60;16.30;;;;;;;3.43;70.33;98346.71;104101;1277;96718;-74
2023/12/20 09:45:48;;;;;;;32.00;16.70;;;;;;;3.49;70.49;98344.11;104219;1276;96750;-74
2023/12/20 09:48:19;;;;;;;33.70;18.70;;;;;;;3.56;70.47;98341.65;104221;1276;110065;-75
2023/12/20 09:50:47;;;;;;;32.40;16.70;;;;;;;3.61;70.27;98341.38;104242;1281;97016;-74
2023/12/20 09:53:23;;;;;;;36.60;18.50;;;;;;;3.64;70.21;98331.17;103994;1276;106745;-75
2023/12/20 09:55:55;;;;;;;32.20;16.10;;;;;;;3.69;70.34;98329.48;103929;1277;96638;-74
2023/12/20 09:58:25;;;;;;;30.70;14.60;;;;;;;3.75;70.48;98330.60;104122;1273;96731;-74
2023/12/20 10:00:55;;;;;;;29.50;14.00;;;;;;;3.79;70.51;98331.75;103801;1276;111699;-74
2023/12/20 10:03:28;;;;;;;29.00;14.30;;;;;;;3.84;70.42;98333.58;104162;1276;97074;-75
2023/12/20 10:05:57;;;;;;;30.00;15.10;;;;;;;3.86;70.57;98335.20;104017;1276;106730;-75
2023/12/20 10:08:26;;;;;;;27.90;14.00;;;;;;;3.89;70.46;98333.09;104089;1274;97465;-74
2023/12/20 10:10:55;;;;;;;28.90;14.60;;;;;;;3.92;70.40;98333.98;104265;1274;97590;-74
2023/12/20 10:13:23;;;;;;;28.40;14.10;;;;;;;3.95;70.41;98335.96;104324;1273;110029;-75
2023/12/20 10:15:51;;;;;;;30.60;16.30;;;;;;;3.96;70.55;98335.20;103955;1285;96646;-75
2023/12/20 10:18:21;;;;;;;33.60;17.20;;;;;;;3.96;70.53;98337.61;104234;1274;108557;-74
2023/12/20 10:20:49;;;;;;;33.70;18.00;;;;;;;3.98;70.66;98340.50;103839;1288;96621;-74
2023/12/20 10:23:18;;;;;;;34.60;17.40;;;;;;;3.99;70.53;98335.02;103972;1276;96700;-76
2023/12/20 10:25:56;;;;;;;34.20;17.40;;;;;;;3.98;70.47;98325.77;104014;1276;109712;-76
2023/12/20 10:28:27;;;;;;;30.90;16.00;;;;;;;3.99;70.52;98327.11;103865;1285;96553;-74
2023/12/20 10:30:58;;;;;;;34.20;17.60;;;;;;;4.00;70.55;98323.70;104099;1277;107246;-76
2023/12/20 10:33:32;;;;;;;35.20;17.20;;;;;;;3.97;70.70;98331.27;104078;1276;96695;-75
2023/12/20 10:36:00;;;;;;;34.20;19.10;;;;;;;3.96;70.50;98328.17;103876;1273;96746;-74
2023/12/20 10:38:30;;;;;;;33.50;17.30;;;;;;;3.94;70.65;98329.32;103896;1278;110557;-75
2023/12/20 10:41:01;;;;;;;31.10;16.30;;;;;;;3.94;70.55;98323.35;104088;1273;96715;-75
2023/12/20 10:46:18;;;;;;;33.60;18.60;;;;;;;3.96;70.78;98313.95;103867;1273;96719;-75
2023/12/20 10:48:48;;;;;;;33.80;18.10;;;;;;;3.94;70.76;98311.96;104230;1273;97452;-74
2023/12/20 10:51:18;;;;;;;31.00;17.40;;;;;;;3.90;70.79;98319.20;104283;1274;110010;-74
2023/12/20 10:53:48;;;;;;;32.70;17.00;;;;;;;3.87;70.73;98315.30;104140;1286;96643;-76
2023/12/20 10:56:19;;;;;;;32.00;16.50;;;;;;;3.89;70.73;98313.27;103773;1285;108304;-75
2023/12/20 11:03:39;;;;;;;31.00;17.20;;;;;;;3.82;71.29;98317.05;102131;1295;636313;-74
2023/12/20 11:06:19;;;;;;;31.40;18.80;;;;;;;3.68;70.81;98319.19;104885;1272;94293;-74
2023/12/20 11:09:10;;;;;;;31.40;17.80;;;;;;;3.66;70.94;98315.46;105214;1262;94322;-75
2023/12/20 11:11:52;;;;;;;33.40;18.30;;;;;;;3.67;71.10;98313.52;104976;1271;109387;-74
2023/12/20 11:14:26;;;;;;;33.70;18.40;;;;;;;3.62;71.14;98305.92;104867;1272;95178;-74
2023/12/20 11:17:06;;;;;;;34.60;19.70;;;;;;;3.57;70.95;98303.85;105458;1261;161827;-73
2023/12/20 11:20:03;;;;;;;33.10;17.00;;;;;;;3.53;70.93;98301.27;105405;1257;94737;-74
2023/12/20 11:22:33;;;;;;;33.60;16.90;;;;;;;3.51;71.23;98299.11;105559;1254;94350;-76
2023/12/20 11:25:08;;;;;;;35.10;18.10;;;;;;;3.48;71.02;98299.81;105462;1255;105535;-75
2023/12/20 11:27:42;;;;;;;32.70;18.70;;;;;;;3.50;71.06;98297.25;105511;1256;95341;-76
2023/12/20 11:30:13;;;;;;;35.60;19.10;;;;;;;3.50;71.25;98292.85;105345;1254;107703;-74
2023/12/20 11:32:43;;;;;;;36.10;18.80;;;;;;;3.48;71.17;98288.41;105534;1254;95261;-74
2023/12/20 11:35:11;;;;;;;34.80;19.40;;;;;;;3.43;71.41;98291.30;105472;1256;95278;-74